Time;durP1;ratioP1;P1;durP2;ratioP2;P2;SDS_P1;SDS_P2;PMS_P1;PMS_P2;Temp;Humidity;BMP_temperature;BMP_pressure;BME280_temperature;BME280_humidity;BME280_pressure;Samples;Min_cycle;Max_cycle;Signal;HPM_P1;HPM_P2
2022/09/30 00:02:23;;;;;;;3.63;2.67;;;7.80;99.90;;;;;;5080108;28;20023;-74
2022/09/30 00:04:50;;;;;;;4.47;3.20;;;7.80;99.90;;;;;;5055373;28;20052;-75
2022/09/30 00:07:16;;;;;;;4.75;2.60;;;7.80;99.90;;;;;;5078668;28;20040;-78
2022/09/30 00:09:42;;;;;;;3.08;2.60;;;7.80;99.90;;;;;;5040109;28;20067;-74
2022/09/30 00:12:09;;;;;;;3.92;2.88;;;7.80;99.90;;;;;;5083065;28;20043;-74
2022/09/30 00:14:35;;;;;;;5.05;2.97;;;7.80;99.90;;;;;;5065897;28;20051;-74
2022/09/30 00:17:01;;;;;;;4.82;3.20;;;7.70;99.90;;;;;;5061828;28;20046;-74
2022/09/30 00:19:28;;;;;;;4.30;3.63;;;7.70;99.90;;;;;;5099462;28;20024;-74
2022/09/30 00:21:54;;;;;;;3.55;2.67;;;7.70;99.90;;;;;;5082822;28;20058;-74
2022/09/30 00:24:20;;;;;;;6.15;3.38;;;7.70;99.90;;;;;;5049028;28;20382;-74
2022/09/30 00:26:47;;;;;;;4.43;3.70;;;7.60;99.90;;;;;;5079511;28;20020;-74
2022/09/30 00:29:13;;;;;;;3.75;3.25;;;7.60;99.90;;;;;;5098427;28;20035;-74
2022/09/30 00:31:40;;;;;;;5.18;4.10;;;7.60;99.90;;;;;;5081738;28;20036;-74
2022/09/30 00:34:06;;;;;;;4.57;2.92;;;7.60;99.90;;;;;;5096549;28;20044;-73
2022/09/30 00:36:42;;;;;;;3.83;3.15;;;7.60;99.90;;;;;;5082608;28;20039;-74
2022/09/30 00:39:21;;;;;;;3.28;2.95;;;7.60;99.90;;;;;;5079121;28;20497;-74
2022/09/30 00:41:53;;;;;;;4.20;3.40;;;7.50;99.90;;;;;;5083038;28;20377;-74
2022/09/30 00:44:49;;;;;;;3.05;2.55;;;7.50;99.90;;;;;;5068838;28;20070;-74
2022/09/30 00:47:25;;;;;;;3.95;3.55;;;7.50;99.90;;;;;;5060637;28;20054;-74
2022/09/30 00:49:52;;;;;;;4.53;3.08;;;7.50;99.90;;;;;;5065208;28;20042;-74
2022/09/30 00:52:19;;;;;;;6.57;4.45;;;7.50;99.90;;;;;;5065247;28;20039;-74
2022/09/30 00:54:45;;;;;;;3.95;3.25;;;7.50;99.90;;;;;;5065624;28;20584;-74
2022/09/30 00:57:12;;;;;;;5.85;3.65;;;7.40;99.90;;;;;;5031140;28;20047;-74
2022/09/30 00:59:46;;;;;;;5.97;4.28;;;7.40;99.90;;;;;;5099670;28;20047;-75
2022/09/30 01:02:13;;;;;;;5.70;4.65;;;7.40;99.90;;;;;;5048049;28;20039;-75
2022/09/30 01:04:42;;;;;;;4.85;3.50;;;7.40;99.90;;;;;;5058155;28;20032;-74
2022/09/30 01:07:09;;;;;;;3.35;2.97;;;7.40;99.90;;;;;;5095534;28;20040;-73
2022/09/30 01:09:39;;;;;;;4.15;3.35;;;7.30;99.90;;;;;;5099080;28;20043;-74
2022/09/30 01:12:10;;;;;;;5.03;3.72;;;7.30;99.90;;;;;;5065125;28;20779;-74
2022/09/30 01:14:38;;;;;;;5.68;4.43;;;7.40;99.90;;;;;;5049582;28;20461;-74
2022/09/30 01:17:15;;;;;;;5.18;4.50;;;7.40;99.90;;;;;;5098925;28;20039;-74
2022/09/30 01:20:25;;;;;;;5.70;4.78;;;7.40;99.90;;;;;;5063514;28;20048;-74
2022/09/30 01:23:13;;;;;;;7.28;5.57;;;7.30;99.90;;;;;;5084620;28;20032;-74
2022/09/30 01:26:26;;;;;;;7.18;5.53;;;7.30;99.90;;;;;;5085294;28;20039;-74
2022/09/30 01:29:37;;;;;;;7.80;4.60;;;7.30;99.90;;;;;;5065033;28;20113;-74
2022/09/30 01:32:31;;;;;;;4.45;3.72;;;7.30;99.90;;;;;;5099918;28;20043;-73
2022/09/30 01:35:06;;;;;;;4.47;3.22;;;7.20;99.90;;;;;;5076836;28;20390;-73
2022/09/30 01:38:00;;;;;;;5.68;4.03;;;7.20;99.90;;;;;;5080185;28;20047;-74
2022/09/30 01:40:48;;;;;;;7.20;5.00;;;7.10;99.90;;;;;;5102369;28;20565;-74
2022/09/30 01:43:33;;;;;;;5.75;4.85;;;7.10;99.90;;;;;;5102579;28;20059;-74
2022/09/30 01:46:22;;;;;;;6.43;5.13;;;7.10;99.90;;;;;;5067146;28;20039;-74
2022/09/30 01:49:03;;;;;;;5.28;4.03;;;7.10;99.90;;;;;;5098027;28;20371;-74
2022/09/30 01:51:46;;;;;;;5.38;4.57;;;7.00;99.90;;;;;;5082583;28;20489;-74
2022/09/30 01:54:38;;;;;;;7.18;4.82;;;7.00;99.90;;;;;;5068049;28;20060;-74
2022/09/30 01:57:24;;;;;;;5.82;4.38;;;7.00;99.90;;;;;;5062852;28;20731;-73
2022/09/30 01:59:58;;;;;;;7.22;4.68;;;6.90;99.90;;;;;;5103185;28;20034;-73
2022/09/30 02:02:29;;;;;;;7.30;4.72;;;6.90;99.90;;;;;;5067872;28;20032;-73
2022/09/30 02:05:10;;;;;;;5.47;4.85;;;6.90;99.90;;;;;;5084537;28;20035;-73
2022/09/30 02:07:45;;;;;;;6.65;5.10;;;6.90;99.90;;;;;;5079657;28;20032;-74
2022/09/30 02:10:17;;;;;;;5.32;4.68;;;6.80;99.90;;;;;;5084682;28;20049;-74
2022/09/30 02:12:52;;;;;;;6.63;4.68;;;6.80;99.90;;;;;;5068291;28;20386;-74
2022/09/30 02:15:22;;;;;;;5.22;4.07;;;6.80;99.90;;;;;;5067763;28;20032;-73
2022/09/30 02:17:57;;;;;;;5.18;4.03;;;6.80;99.90;;;;;;5081276;28;20042;-74
2022/09/30 02:20:31;;;;;;;4.95;4.45;;;6.80;99.90;;;;;;5082890;28;20486;-74
2022/09/30 02:23:07;;;;;;;4.93;3.92;;;6.80;99.90;;;;;;5083859;28;20383;-74
2022/09/30 02:25:40;;;;;;;5.53;4.22;;;6.80;99.90;;;;;;5069328;28;20028;-74
2022/09/30 02:28:11;;;;;;;5.70;4.30;;;6.80;99.90;;;;;;5097476;28;20039;-73
2022/09/30 02:30:44;;;;;;;5.00;4.40;;;6.80;99.90;;;;;;5102710;28;20509;-74
2022/09/30 02:33:26;;;;;;;6.85;5.15;;;6.80;99.90;;;;;;5084418;28;20031;-74
2022/09/30 02:35:57;;;;;;;6.25;4.30;;;6.70;99.90;;;;;;5102730;28;20028;-74
2022/09/30 02:38:36;;;;;;;4.45;4.05;;;6.70;99.90;;;;;;5079285;28;20390;-74
2022/09/30 02:41:11;;;;;;;4.72;3.83;;;6.70;99.90;;;;;;5084297;28;20055;-74
2022/09/30 02:43:40;;;;;;;5.38;4.63;;;6.70;99.90;;;;;;5040916;28;20070;-74
2022/09/30 02:46:22;;;;;;;4.28;3.67;;;6.80;99.90;;;;;;5082944;28;20046;-74
2022/09/30 02:49:06;;;;;;;6.43;5.45;;;6.70;99.90;;;;;;5079288;28;20027;-73
2022/09/30 02:51:41;;;;;;;7.30;4.70;;;6.70;99.90;;;;;;5101936;28;20032;-73
2022/09/30 02:54:18;;;;;;;4.68;4.05;;;6.70;99.90;;;;;;5102080;28;20035;-73
2022/09/30 02:56:56;;;;;;;5.45;4.38;;;6.70;99.90;;;;;;5058411;28;20035;-73
2022/09/30 02:59:24;;;;;;;8.88;5.03;;;6.70;99.90;;;;;;5063872;28;20497;-74
2022/09/30 03:01:50;;;;;;;6.88;5.75;;;6.70;99.90;;;;;;5082139;28;20478;-73
2022/09/30 03:04:27;;;;;;;7.53;5.20;;;6.70;99.90;;;;;;5100835;28;20039;-73
2022/09/30 03:06:54;;;;;;;6.60;4.93;;;6.70;99.90;;;;;;5099132;28;20052;-73
2022/09/30 03:09:25;;;;;;;8.00;7.20;;;6.70;99.90;;;;;;5080881;28;20293;-73
2022/09/30 03:12:07;;;;;;;9.13;8.23;;;6.70;99.90;;;;;;5102323;28;20044;-73
2022/09/30 03:14:57;;;;;;;8.13;6.97;;;6.70;99.90;;;;;;5065992;28;20051;-74
2022/09/30 03:18:05;;;;;;;6.93;5.07;;;6.60;99.90;;;;;;5095621;28;20047;-73
2022/09/30 03:21:02;;;;;;;5.20;4.43;;;6.60;99.90;;;;;;5066734;28;20063;-73
2022/09/30 03:23:35;;;;;;;5.57;4.95;;;6.60;99.90;;;;;;5083457;28;20047;-73
2022/09/30 03:26:13;;;;;;;5.03;4.30;;;6.60;99.90;;;;;;5100568;28;20031;-73
2022/09/30 03:29:13;;;;;;;6.47;5.22;;;6.50;99.90;;;;;;5096266;28;20047;-73
2022/09/30 03:32:10;;;;;;;5.85;4.47;;;6.50;99.90;;;;;;5066534;28;20071;-73
2022/09/30 03:34:54;;;;;;;5.20;3.92;;;6.50;99.90;;;;;;5067036;28;20047;-73
2022/09/30 03:37:34;;;;;;;6.43;4.65;;;6.40;99.90;;;;;;5059748;28;20044;-73
2022/09/30 03:40:17;;;;;;;6.60;4.93;;;6.50;99.90;;;;;;5099668;28;20481;-73
2022/09/30 03:42:44;;;;;;;;;;;6.50;99.90;;;;;;5102680;28;20051;-73
2022/09/30 03:45:21;;;;;;;4.20;3.65;;;6.50;99.90;;;;;;5083005;28;19935;-73
2022/09/30 03:47:54;;;;;;;6.45;5.60;;;6.50;99.90;;;;;;5061064;28;20051;-74
2022/09/30 03:50:23;;;;;;;6.93;5.13;;;6.50;99.90;;;;;;5101828;28;20031;-74
2022/09/30 03:52:50;;;;;;;6.93;4.10;;;6.40;99.90;;;;;;5083487;28;20031;-73
2022/09/30 03:55:18;;;;;;;7.57;5.63;;;6.40;99.90;;;;;;5083414;28;20044;-73
2022/09/30 03:57:44;;;;;;;5.82;4.40;;;6.40;99.90;;;;;;5094347;28;20393;-73
2022/09/30 04:00:12;;;;;;;7.38;5.80;;;6.40;99.90;;;;;;5048595;28;20062;-73
2022/09/30 04:02:38;;;;;;;7.45;5.45;;;6.40;99.90;;;;;;5099633;28;20580;-73
2022/09/30 04:05:05;;;;;;;6.80;5.72;;;6.40;99.90;;;;;;5082958;28;20034;-73
2022/09/30 04:07:32;;;;;;;6.25;5.13;;;6.40;99.90;;;;;;5059794;28;20038;-73
2022/09/30 04:09:58;;;;;;;5.53;4.97;;;6.40;99.90;;;;;;5101196;28;20045;-73
2022/09/30 04:12:25;;;;;;;6.97;5.25;;;6.40;99.90;;;;;;5101647;28;20378;-73
2022/09/30 04:14:51;;;;;;;7.47;5.30;;;6.40;99.90;;;;;;5099497;28;20039;-73
2022/09/30 04:17:17;;;;;;;6.70;5.43;;;6.40;99.90;;;;;;5078261;28;20031;-73
2022/09/30 04:19:44;;;;;;;8.00;6.18;;;6.30;99.90;;;;;;5100325;28;20039;-74
2022/09/30 04:22:10;;;;;;;6.97;6.00;;;6.30;99.90;;;;;;5099403;28;20727;-74
2022/09/30 04:24:38;;;;;;;10.80;7.30;;;6.30;99.90;;;;;;5082899;28;20055;-74
2022/09/30 04:27:04;;;;;;;7.78;6.68;;;6.40;99.90;;;;;;5096291;28;20634;-74
2022/09/30 04:29:30;;;;;;;8.38;7.00;;;6.30;99.90;;;;;;5062613;28;20474;-73
2022/09/30 04:31:56;;;;;;;8.43;6.50;;;6.30;99.90;;;;;;5066761;28;20028;-73
2022/09/30 04:34:23;;;;;;;8.48;6.03;;;6.30;99.90;;;;;;5083485;28;20035;-73
2022/09/30 04:36:49;;;;;;;8.18;6.18;;;6.30;99.90;;;;;;5080332;28;20548;-74
2022/09/30 04:39:15;;;;;;;7.85;5.75;;;6.30;99.90;;;;;;5078266;28;20066;-73
2022/09/30 04:41:42;;;;;;;7.32;6.03;;;6.30;99.90;;;;;;5082311;28;20478;-73
2022/09/30 04:44:08;;;;;;;8.93;6.05;;;6.30;99.90;;;;;;5100314;28;20079;-73
2022/09/30 04:46:35;;;;;;;10.23;8.07;;;6.30;99.90;;;;;;5099878;28;20042;-73
2022/09/30 04:49:03;;;;;;;8.73;6.97;;;6.30;99.90;;;;;;5035134;28;20595;-73
2022/09/30 04:51:29;;;;;;;8.38;6.13;;;6.30;99.90;;;;;;5103404;28;20023;-72
2022/09/30 04:53:56;;;;;;;7.90;6.25;;;6.20;99.90;;;;;;5105626;28;20153;-74
2022/09/30 04:56:23;;;;;;;7.15;6.28;;;6.20;99.90;;;;;;5053121;28;20210;-74
2022/09/30 04:58:51;;;;;;;9.48;6.55;;;6.20;99.90;;;;;;5080618;28;20048;-74
2022/09/30 05:01:18;;;;;;;8.18;6.47;;;6.20;99.90;;;;;;5058896;28;20512;-75
2022/09/30 05:03:45;;;;;;;7.35;6.47;;;6.20;99.90;;;;;;5105168;28;20036;-73
2022/09/30 05:06:13;;;;;;;7.10;5.57;;;6.20;99.90;;;;;;5085995;28;20047;-73
2022/09/30 05:08:42;;;;;;;11.48;10.02;;;6.20;99.90;;;;;;5098477;28;20035;-73
2022/09/30 05:11:12;;;;;;;13.63;11.35;;;6.20;99.90;;;;;;5104544;28;20216;-74
2022/09/30 05:13:39;;;;;;;11.50;9.10;;;6.20;99.90;;;;;;5086037;28;20031;-74
2022/09/30 05:16:07;;;;;;;12.20;9.00;;;6.20;99.90;;;;;;5085281;28;20039;-74
2022/09/30 05:18:34;;;;;;;8.88;6.97;;;6.20;99.90;;;;;;5096466;28;20032;-74
2022/09/30 05:21:01;;;;;;;10.02;7.90;;;6.10;99.90;;;;;;5102899;28;20055;-74
2022/09/30 05:23:29;;;;;;;8.27;7.43;;;6.20;99.90;;;;;;5083088;28;20035;-74
2022/09/30 05:25:56;;;;;;;9.00;6.93;;;6.20;99.90;;;;;;5068238;28;20032;-74
2022/09/30 05:28:24;;;;;;;10.88;8.82;;;6.20;99.90;;;;;;5098008;28;20035;-74
2022/09/30 05:30:59;;;;;;;17.20;13.35;;;6.20;99.90;;;;;;5060962;28;20043;-74
2022/09/30 05:33:30;;;;;;;18.58;13.85;;;6.20;99.90;;;;;;5085830;28;20050;-74
2022/09/30 05:36:02;;;;;;;15.70;12.40;;;6.10;99.90;;;;;;5068440;28;20050;-74
2022/09/30 05:38:29;;;;;;;12.88;10.63;;;6.20;99.90;;;;;;5079467;28;20034;-74
2022/09/30 05:40:55;;;;;;;9.70;8.38;;;6.10;99.90;;;;;;5068394;28;20040;-73
2022/09/30 05:43:22;;;;;;;8.88;7.97;;;6.10;99.90;;;;;;5104325;28;20480;-73
2022/09/30 05:45:53;;;;;;;9.38;8.32;;;6.10;99.90;;;;;;5103930;27;20043;-73
2022/09/30 05:48:20;;;;;;;10.15;8.13;;;6.10;99.90;;;;;;5097936;28;20377;-74
2022/09/30 05:50:49;;;;;;;11.18;8.40;;;6.10;99.90;;;;;;5101889;28;20032;-74
2022/09/30 05:53:17;;;;;;;12.35;10.10;;;6.10;99.90;;;;;;5085605;28;20035;-75
2022/09/30 05:55:47;;;;;;;14.15;10.98;;;6.10;99.90;;;;;;5084200;28;20502;-75
2022/09/30 05:58:14;;;;;;;14.88;11.57;;;6.10;99.90;;;;;;5043723;28;20383;-75
2022/09/30 06:00:45;;;;;;;13.57;11.25;;;6.20;99.90;;;;;;5066805;28;20613;-74
2022/09/30 06:03:12;;;;;;;10.35;8.43;;;6.20;99.90;;;;;;5084395;28;20345;-74
2022/09/30 06:05:39;;;;;;;12.45;9.65;;;6.20;99.90;;;;;;5101957;28;20488;-73
2022/09/30 06:08:08;;;;;;;13.85;10.90;;;6.30;99.90;;;;;;5096013;28;20027;-75
2022/09/30 06:10:35;;;;;;;12.85;10.95;;;6.30;99.90;;;;;;5084532;28;20042;-75
2022/09/30 06:13:04;;;;;;;13.52;10.60;;;6.40;99.90;;;;;;5045381;28;20115;-75
2022/09/30 06:15:31;;;;;;;12.35;9.73;;;6.40;99.90;;;;;;5044581;28;20394;-75
2022/09/30 06:17:58;;;;;;;10.77;9.15;;;6.50;99.90;;;;;;5061223;28;20027;-72
2022/09/30 06:20:24;;;;;;;11.68;8.77;;;6.50;99.90;;;;;;5101357;28;20028;-73
2022/09/30 06:22:51;;;;;;;11.68;8.38;;;6.60;99.90;;;;;;5101764;28;20040;-72
2022/09/30 06:25:17;;;;;;;12.02;9.07;;;6.60;99.90;;;;;;5084716;28;20036;-73
2022/09/30 06:27:45;;;;;;;11.10;8.07;;;6.70;99.90;;;;;;5078664;28;20039;-73
2022/09/30 06:30:13;;;;;;;8.90;7.63;;;6.80;99.90;;;;;;5067307;28;20044;-72
2022/09/30 06:32:39;;;;;;;7.93;6.95;;;6.80;99.90;;;;;;5061983;27;20036;-73
2022/09/30 06:35:05;;;;;;;9.20;7.72;;;6.90;99.90;;;;;;5102282;28;20031;-73
2022/09/30 06:37:33;;;;;;;10.25;7.10;;;7.00;99.90;;;;;;5043923;28;20035;-72
2022/09/30 06:40:00;;;;;;;16.75;12.88;;;7.10;99.90;;;;;;5083350;28;20035;-72
2022/09/30 06:42:26;;;;;;;13.13;11.07;;;7.20;99.90;;;;;;5080841;28;20044;-74
2022/09/30 06:44:53;;;;;;;12.23;9.80;;;7.30;99.90;;;;;;5083857;28;20034;-75
2022/09/30 06:47:19;;;;;;;12.18;9.30;;;7.50;99.90;;;;;;5077820;28;20893;-73
2022/09/30 06:49:45;;;;;;;11.80;8.95;;;7.50;99.90;;;;;;5100022;28;20035;-73
2022/09/30 06:52:12;;;;;;;10.75;9.65;;;7.60;99.90;;;;;;5082798;28;20047;-74
2022/09/30 06:54:42;;;;;;;11.95;10.43;;;7.80;99.90;;;;;;5100712;28;20046;-74
2022/09/30 06:57:08;;;;;;;12.23;9.48;;;7.90;99.90;;;;;;5078733;28;20048;-73
2022/09/30 06:59:35;;;;;;;11.40;9.52;;;8.00;99.90;;;;;;5082953;28;20043;-73
2022/09/30 07:02:01;;;;;;;10.52;9.32;;;8.10;99.90;;;;;;5083645;28;20023;-73
2022/09/30 07:04:27;;;;;;;12.70;10.98;;;8.20;99.90;;;;;;5100715;28;20023;-73
2022/09/30 07:06:54;;;;;;;12.48;10.32;;;8.30;99.90;;;;;;5053553;28;20043;-74
2022/09/30 07:09:20;;;;;;;10.77;9.25;;;8.40;99.90;;;;;;5061683;28;20043;-73
2022/09/30 07:11:47;;;;;;;17.65;10.43;;;8.50;99.90;;;;;;5064722;28;20051;-73
2022/09/30 07:14:13;;;;;;;13.45;9.80;;;8.60;99.90;;;;;;5082433;28;20035;-73
2022/09/30 07:16:40;;;;;;;9.98;8.93;;;8.70;99.90;;;;;;5075640;28;20043;-73
2022/09/30 07:19:08;;;;;;;11.43;8.80;;;8.70;99.90;;;;;;5095735;28;20126;-73
2022/09/30 07:21:35;;;;;;;9.40;8.43;;;8.80;99.90;;;;;;5083152;28;20035;-74
2022/09/30 07:24:01;;;;;;;10.43;8.80;;;8.90;99.90;;;;;;5081883;28;20023;-72
2022/09/30 07:26:28;;;;;;;10.10;8.93;;;9.00;99.90;;;;;;5093870;28;20027;-73
2022/09/30 07:28:54;;;;;;;10.50;9.40;;;9.10;99.90;;;;;;5077582;28;20525;-73
2022/09/30 07:31:25;;;;;;;14.48;12.40;;;9.20;99.90;;;;;;5101986;28;20028;-73
2022/09/30 07:33:51;;;;;;;13.07;11.23;;;9.30;99.90;;;;;;5101559;28;20035;-72
2022/09/30 07:36:28;;;;;;;11.85;10.23;;;9.40;99.90;;;;;;5100264;28;20039;-73
2022/09/30 07:38:55;;;;;;;13.73;11.65;;;9.50;99.90;;;;;;5095036;28;20397;-72
2022/09/30 07:41:27;;;;;;;19.45;15.00;;;9.60;99.90;;;;;;5101303;28;20039;-73
2022/09/30 07:43:56;;;;;;;14.25;11.73;;;9.70;99.90;;;;;;5083049;28;20047;-73
2022/09/30 07:46:25;;;;;;;12.57;11.13;;;9.80;99.90;;;;;;5082929;28;20460;-73
2022/09/30 07:48:55;;;;;;;15.35;13.02;;;9.90;99.90;;;;;;5096206;28;20055;-74
2022/09/30 07:51:29;;;;;;;15.20;12.52;;;10.00;99.90;;;;;;5102041;28;20040;-74
2022/09/30 07:54:02;;;;;;;16.10;13.45;;;10.10;99.90;;;;;;5099942;28;20048;-74
2022/09/30 07:56:28;;;;;;;20.42;17.55;;;10.20;99.90;;;;;;5101552;28;20035;-73
2022/09/30 07:58:58;;;;;;;16.83;13.77;;;10.30;99.90;;;;;;5033987;28;20043;-73
2022/09/30 08:01:26;;;;;;;15.07;13.48;;;10.40;99.90;;;;;;5082690;28;20032;-73
2022/09/30 08:03:55;;;;;;;19.40;16.25;;;10.50;99.90;;;;;;5058944;28;20046;-73
2022/09/30 08:06:23;;;;;;;16.88;15.18;;;10.60;99.90;;;;;;5099454;28;20052;-73
2022/09/30 08:08:52;;;;;;;17.90;15.07;;;10.70;99.90;;;;;;5077184;28;20036;-74
2022/09/30 08:11:18;;;;;;;19.20;16.00;;;10.80;99.90;;;;;;5101206;28;20032;-73
2022/09/30 08:13:50;;;;;;;20.98;18.73;;;10.90;99.90;;;;;;5101190;28;20036;-74
2022/09/30 08:16:17;;;;;;;25.38;21.85;;;11.00;99.90;;;;;;5069697;28;20047;-74
2022/09/30 08:18:44;;;;;;;20.60;17.98;;;11.10;99.90;;;;;;5076796;28;20040;-73
2022/09/30 08:21:10;;;;;;;20.00;17.50;;;11.20;99.90;;;;;;5101034;28;20055;-73
2022/09/30 08:23:36;;;;;;;23.13;19.83;;;11.20;99.90;;;;;;5082523;28;20055;-73
2022/09/30 08:26:05;;;;;;;28.23;23.17;;;11.40;99.90;;;;;;5104131;28;20039;-73
2022/09/30 08:28:31;;;;;;;22.52;20.13;;;11.40;99.90;;;;;;5101671;28;20067;-73
2022/09/30 08:31:04;;;;;;;25.38;22.67;;;11.50;99.90;;;;;;5103809;28;20039;-73
2022/09/30 08:33:31;;;;;;;18.77;16.88;;;11.60;99.90;;;;;;5104291;28;20492;-73
2022/09/30 08:36:06;;;;;;;25.25;22.70;;;11.70;99.90;;;;;;5055461;28;20027;-73
2022/09/30 08:38:33;;;;;;;18.42;16.48;;;11.80;99.90;;;;;;5083338;28;20050;-73
2022/09/30 08:41:30;;;;;;;19.35;17.30;;;11.80;99.90;;;;;;5086402;28;20050;-73
2022/09/30 08:44:39;;;;;;;22.80;20.50;;;11.90;99.90;;;;;;5086776;28;20509;-73
2022/09/30 08:47:29;;;;;;;27.20;23.88;;;12.10;99.90;;;;;;5102411;28;20450;-73
2022/09/30 08:50:43;;;;;;;36.15;30.50;;;12.20;99.90;;;;;;5102529;27;20024;-73
2022/09/30 08:53:25;;;;;;;28.83;24.25;;;12.30;99.90;;;;;;5069692;28;20606;-73
2022/09/30 08:55:55;;;;;;;23.42;20.90;;;12.30;99.90;;;;;;5082977;28;20031;-73
2022/09/30 08:58:29;;;;;;;20.80;18.70;;;12.50;99.90;;;;;;5101018;28;20039;-74
2022/09/30 09:01:32;;;;;;;19.88;17.88;;;12.60;99.90;;;;;;5084811;28;20032;-72
2022/09/30 09:04:00;;;;;;;16.02;14.43;;;12.80;99.90;;;;;;5084874;28;20028;-73
2022/09/30 09:07:08;;;;;;;17.20;15.60;;;12.90;99.90;;;;;;5085795;28;20485;-73
2022/09/30 09:09:52;;;;;;;14.20;12.75;;;13.00;99.90;;;;;;5065594;28;20383;-73
2022/09/30 09:12:47;;;;;;;24.75;22.30;;;13.10;99.90;;;;;;5086470;28;20537;-74
2022/09/30 09:15:19;;;;;;;17.63;15.88;;;13.30;99.90;;;;;;5068098;28;20325;-71
2022/09/30 09:18:23;;;;;;;19.25;17.20;;;13.40;99.90;;;;;;5082625;28;20039;-72
2022/09/30 09:20:58;;;;;;;17.52;15.70;;;13.50;99.90;;;;;;5068705;28;20035;-72
2022/09/30 09:23:27;;;;;;;15.57;13.55;;;13.70;99.90;;;;;;5067924;28;20019;-72
2022/09/30 09:25:54;;;;;;;13.52;12.25;;;13.80;99.90;;;;;;5049149;28;20626;-72
2022/09/30 09:28:36;;;;;;;12.23;11.13;;;13.90;99.90;;;;;;5100744;28;20040;-72
2022/09/30 09:31:03;;;;;;;13.30;11.90;;;14.00;99.90;;;;;;5052118;28;20544;-72
2022/09/30 09:33:34;;;;;;;12.98;11.70;;;14.20;99.90;;;;;;5103051;28;20285;-72
2022/09/30 09:36:03;;;;;;;16.45;14.95;;;14.30;99.90;;;;;;5082721;28;20024;-72
2022/09/30 09:38:37;;;;;;;10.98;9.88;;;14.40;99.90;;;;;;5082978;28;20044;-71
2022/09/30 09:41:13;;;;;;;11.73;10.60;;;14.50;99.90;;;;;;5101498;28;20039;-72
2022/09/30 09:44:06;;;;;;;14.15;12.80;;;14.60;99.90;;;;;;5082681;28;20524;-73
2022/09/30 09:46:54;;;;;;;10.68;9.63;;;14.70;99.90;;;;;;5060407;27;20062;-72
2022/09/30 09:49:22;;;;;;;11.82;10.80;;;14.80;99.90;;;;;;5081603;28;20036;-73
2022/09/30 09:51:58;;;;;;;11.82;10.75;;;14.90;99.90;;;;;;5100788;27;20105;-72
2022/09/30 09:54:29;;;;;;;14.18;12.77;;;15.00;99.90;;;;;;5100374;28;20043;-73
2022/09/30 09:57:08;;;;;;;10.98;9.98;;;15.20;99.90;;;;;;5082900;28;20032;-73
2022/09/30 09:59:35;;;;;;;9.30;8.40;;;15.40;99.90;;;;;;5057648;28;20032;-73
2022/09/30 10:02:20;;;;;;;16.08;14.50;;;15.70;99.90;;;;;;5082906;28;20023;-73
2022/09/30 10:04:58;;;;;;;10.85;9.85;;;16.00;99.90;;;;;;5084569;27;20042;-73
2022/09/30 10:07:27;;;;;;;14.05;11.25;;;16.40;99.90;;;;;;5098208;27;20043;-73
2022/09/30 10:10:17;;;;;;;10.77;9.77;;;16.70;99.90;;;;;;5065235;28;20043;-73
2022/09/30 10:12:46;;;;;;;9.13;8.10;;;17.10;99.90;;;;;;5079194;28;20031;-72
2022/09/30 10:15:23;;;;;;;6.97;6.28;;;17.40;99.90;;;;;;5082146;27;20028;-72
2022/09/30 10:17:55;;;;;;;7.65;7.05;;;17.80;99.90;;;;;;5060711;28;20032;-72
2022/09/30 10:20:25;;;;;;;10.77;8.65;;;18.20;99.90;;;;;;5083765;28;20039;-73
2022/09/30 10:23:01;;;;;;;7.28;6.38;;;18.60;99.90;;;;;;5069366;28;20047;-73
2022/09/30 10:25:27;;;;;;;8.40;7.65;;;19.10;99.90;;;;;;5067180;28;20036;-73
2022/09/30 10:27:57;;;;;;;7.00;6.28;;;19.40;99.90;;;;;;5065291;28;20039;-73
2022/09/30 10:30:31;;;;;;;6.82;6.20;;;19.60;99.90;;;;;;5102898;28;20047;-72
2022/09/30 10:33:02;;;;;;;8.18;7.30;;;19.90;99.90;;;;;;5081886;28;20024;-74
2022/09/30 10:35:29;;;;;;;7.15;6.45;;;20.10;99.90;;;;;;5062768;28;20043;-73
2022/09/30 10:37:58;;;;;;;8.82;6.78;;;20.30;99.90;;;;;;5043725;28;20035;-72
2022/09/30 10:40:28;;;;;;;7.90;6.97;;;20.70;99.90;;;;;;5100663;28;20054;-72
2022/09/30 10:42:55;;;;;;;6.70;5.97;;;20.90;99.90;;;;;;5102384;28;20126;-73
2022/09/30 10:45:27;;;;;;;6.50;5.90;;;21.10;99.90;;;;;;5102802;28;20473;-73
2022/09/30 10:47:55;;;;;;;6.25;5.65;;;21.40;99.90;;;;;;5098728;28;20061;-72
2022/09/30 10:50:25;;;;;;;7.43;5.80;;;21.70;99.90;;;;;;5084452;28;20746;-71
2022/09/30 10:53:03;;;;;;;6.75;6.13;;;21.90;99.90;;;;;;5067541;28;20054;-72
2022/09/30 10:55:42;;;;;;;3.63;3.33;;;22.20;99.20;;;;;;5082500;28;20454;-72
2022/09/30 10:58:41;;;;;;;4.70;4.00;;;22.40;98.80;;;;;;5099608;28;20035;-74
2022/09/30 11:01:26;;;;;;;4.18;3.10;;;22.60;97.40;;;;;;5081464;28;20048;-73
2022/09/30 11:04:02;;;;;;;5.20;4.72;;;22.80;97.00;;;;;;5102391;28;20032;-73
2022/09/30 11:06:32;;;;;;;4.55;2.95;;;23.00;96.40;;;;;;5083660;28;20047;-74
2022/09/30 11:09:36;;;;;;;9.77;8.05;;;23.30;95.60;;;;;;5097970;28;20034;-71
2022/09/30 11:12:30;;;;;;;4.18;3.88;;;23.50;94.30;;;;;;5101611;28;20035;-71
2022/09/30 11:15:07;;;;;;;4.75;4.30;;;23.80;93.80;;;;;;5070439;28;20039;-71
2022/09/30 11:17:45;;;;;;;2.47;2.05;;;24.00;93.40;;;;;;5080105;28;20039;-73
2022/09/30 11:20:24;;;;;;;6.78;3.95;;;24.20;93.20;;;;;;5101401;28;20047;-73
2022/09/30 11:22:59;;;;;;;4.43;3.05;;;24.10;91.60;;;;;;5101769;28;20042;-72
2022/09/30 11:25:38;;;;;;;4.35;3.65;;;23.90;91.60;;;;;;5101686;28;20043;-72
2022/09/30 11:28:22;;;;;;;5.53;3.83;;;23.50;91.30;;;;;;5086991;28;20044;-73
2022/09/30 11:30:51;;;;;;;4.47;2.72;;;23.00;91.40;;;;;;5066171;28;20488;-74
2022/09/30 11:33:38;;;;;;;3.72;3.15;;;22.80;91.00;;;;;;5082867;28;20054;-74
2022/09/30 11:36:24;;;;;;;3.60;3.30;;;22.60;91.00;;;;;;5047227;28;20038;-71
2022/09/30 11:39:13;;;;;;;3.55;3.25;;;22.30;91.00;;;;;;5062959;28;20593;-73
2022/09/30 11:41:56;;;;;;;6.20;3.72;;;21.90;91.20;;;;;;5080374;28;20046;-73
2022/09/30 11:44:35;;;;;;;4.65;2.40;;;22.00;90.90;;;;;;5095369;27;20082;-74
2022/09/30 11:47:28;;;;;;;6.13;5.05;;;22.70;90.80;;;;;;5076743;28;20035;-73
2022/09/30 11:50:24;;;;;;;6.40;5.80;;;23.60;90.10;;;;;;5082442;28;20027;-72
2022/09/30 11:52:54;;;;;;;3.85;3.53;;;23.70;88.00;;;;;;5080392;28;20042;-72
2022/09/30 11:55:31;;;;;;;8.05;6.65;;;23.00;88.40;;;;;;5076318;28;20046;-73
2022/09/30 11:58:16;;;;;;;11.20;9.55;;;22.80;89.50;;;;;;5076378;28;20118;-74
2022/09/30 12:00:48;;;;;;;9.43;8.45;;;22.80;88.60;;;;;;5079818;28;20031;-73
2022/09/30 12:03:25;;;;;;;;;;;23.20;88.10;;;;;;5095092;28;20035;-74
2022/09/30 12:06:01;;;;;;;5.22;4.78;;;23.90;87.60;;;;;;5082857;28;19919;-73
2022/09/30 12:08:39;;;;;;;6.60;6.00;;;24.20;86.60;;;;;;5098105;28;20046;-72
2022/09/30 12:11:43;;;;;;;7.25;6.55;;;24.80;84.90;;;;;;5081581;28;20039;-74
2022/09/30 12:14:34;;;;;;;4.70;4.18;;;25.50;82.00;;;;;;5062000;28;20031;-74
2022/09/30 12:17:05;;;;;;;4.93;4.43;;;26.00;81.10;;;;;;5099293;28;20051;-73
2022/09/30 12:19:46;;;;;;;5.25;4.75;;;26.50;78.50;;;;;;5081000;28;20039;-72
2022/09/30 12:22:19;;;;;;;5.97;5.15;;;27.00;76.70;;;;;;5064059;28;20039;-75
2022/09/30 12:24:45;;;;;;;6.18;5.30;;;27.20;74.00;;;;;;5067249;28;20048;-74
2022/09/30 12:27:14;;;;;;;6.57;5.97;;;26.50;72.50;;;;;;5078849;28;20032;-73
2022/09/30 12:30:19;;;;;;;6.35;5.63;;;25.70;73.90;;;;;;5098224;28;20490;-74
2022/09/30 12:33:19;;;;;;;4.47;4.07;;;26.20;74.70;;;;;;5098711;28;20098;-73
2022/09/30 12:36:16;;;;;;;5.68;5.00;;;27.10;73.70;;;;;;5099928;28;20043;-73
2022/09/30 12:38:54;;;;;;;4.53;3.42;;;27.80;71.50;;;;;;5097617;28;20537;-73
2022/09/30 12:41:26;;;;;;;3.55;3.25;;;28.30;69.50;;;;;;5100826;28;20465;-72
2022/09/30 12:44:23;;;;;;;4.78;3.20;;;28.60;68.60;;;;;;5079155;28;20063;-74
2022/09/30 12:47:11;;;;;;;3.60;2.40;;;28.50;66.70;;;;;;5063289;28;20051;-75
2022/09/30 12:49:39;;;;;;;3.70;3.40;;;27.40;66.40;;;;;;5077823;28;20585;-74
2022/09/30 12:52:18;;;;;;;2.42;1.85;;;25.90;67.40;;;;;;5077853;28;20031;-73
2022/09/30 12:54:56;;;;;;;2.80;2.53;;;24.80;69.60;;;;;;5093496;28;20037;-74
2022/09/30 12:57:27;;;;;;;4.18;3.20;;;24.10;71.80;;;;;;5042006;28;20045;-74
2022/09/30 12:59:59;;;;;;;3.42;1.48;;;24.20;71.70;;;;;;5078855;28;20039;-73
2022/09/30 13:02:34;;;;;;;3.33;1.42;;;23.80;71.40;;;;;;5079223;28;20417;-73
2022/09/30 13:05:25;;;;;;;2.42;1.25;;;24.00;72.90;;;;;;5080210;28;20035;-73
2022/09/30 13:08:03;;;;;;;1.83;0.90;;;25.10;72.10;;;;;;5077621;28;20036;-72
2022/09/30 13:10:31;;;;;;;1.13;0.75;;;25.50;70.00;;;;;;5063119;28;20040;-73
2022/09/30 13:13:10;;;;;;;0.93;0.60;;;24.90;70.70;;;;;;5065369;28;20039;-72
2022/09/30 13:15:41;;;;;;;1.17;0.60;;;23.90;71.60;;;;;;5081838;28;20573;-72
2022/09/30 13:18:19;;;;;;;0.97;0.53;;;23.20;73.20;;;;;;5061453;28;20036;-72
2022/09/30 13:20:53;;;;;;;0.95;0.68;;;22.40;74.60;;;;;;5066453;28;20621;-73
2022/09/30 13:23:40;;;;;;;0.70;0.50;;;22.00;76.10;;;;;;5065117;28;20044;-73
2022/09/30 13:26:27;;;;;;;1.42;0.60;;;21.50;76.70;;;;;;5083109;28;20039;-71